sensor_id;sensor_type;location;lat;lon;timestamp;temperature;humidity
44731;DHT22;30458;47.448;19.032;2023-02-03T00:07:02;4.50;99.90
44731;DHT22;30458;47.448;19.032;2023-02-03T00:17:06;4.50;99.90
44731;DHT22;30458;47.448;19.032;2023-02-03T00:27:06;4.40;99.90
44731;DHT22;30458;47.448;19.032;2023-02-03T00:37:08;4.30;99.90
44731;DHT22;30458;47.448;19.032;2023-02-03T00:47:09;4.20;99.90
44731;DHT22;30458;47.448;19.032;2023-02-03T00:57:14;4.10;99.90
44731;DHT22;30458;47.448;19.032;2023-02-03T01:07:15;4.20;99.90
44731;DHT22;30458;47.448;19.032;2023-02-03T01:17:20;4.20;99.90
44731;DHT22;30458;47.448;19.032;2023-02-03T01:27:21;4.30;99.90
44731;DHT22;30458;47.448;19.032;2023-02-03T01:37:22;4.50;99.90
44731;DHT22;30458;47.448;19.032;2023-02-03T01:47:33;4.20;99.90
44731;DHT22;30458;47.448;19.032;2023-02-03T01:57:50;4.40;99.90
44731;DHT22;30458;47.448;19.032;2023-02-03T02:07:55;4.60;99.90
44731;DHT22;30458;47.448;19.032;2023-02-03T02:48:32;3.60;99.90
44731;DHT22;30458;47.448;19.032;2023-02-03T02:58:40;3.60;99.90
44731;DHT22;30458;47.448;19.032;2023-02-03T03:08:55;3.10;99.90
44731;DHT22;30458;47.448;19.032;2023-02-03T03:19:01;3.00;99.90
44731;DHT22;30458;47.448;19.032;2023-02-03T03:49:23;3.30;99.90
44731;DHT22;30458;47.448;19.032;2023-02-03T03:59:30;3.50;99.90
44731;DHT22;30458;47.448;19.032;2023-02-03T04:09:34;3.50;99.90
44731;DHT22;30458;47.448;19.032;2023-02-03T04:19:36;3.80;99.90
44731;DHT22;30458;47.448;19.032;2023-02-03T04:29:39;4.00;99.10
44731;DHT22;30458;47.448;19.032;2023-02-03T04:39:42;4.00;98.10
44731;DHT22;30458;47.448;19.032;2023-02-03T04:49:43;3.90;96.70
44731;DHT22;30458;47.448;19.032;2023-02-03T04:59:46;3.90;95.80
44731;DHT22;30458;47.448;19.032;2023-02-03T05:09:47;3.80;95.40
44731;DHT22;30458;47.448;19.032;2023-02-03T05:19:48;3.80;95.80
44731;DHT22;30458;47.448;19.032;2023-02-03T05:29:53;4.20;96.00
44731;DHT22;30458;47.448;19.032;2023-02-03T05:39:54;4.30;94.80
44731;DHT22;30458;47.448;19.032;2023-02-03T05:50:14;4.30;93.80
44731;DHT22;30458;47.448;19.032;2023-02-03T06:00:16;3.80;94.70
44731;DHT22;30458;47.448;19.032;2023-02-03T06:10:17;3.70;95.60
44731;DHT22;30458;47.448;19.032;2023-02-03T06:20:19;4.10;95.80
44731;DHT22;30458;47.448;19.032;2023-02-03T06:30:19;4.40;96.30
44731;DHT22;30458;47.448;19.032;2023-02-03T06:40:25;4.60;96.00
44731;DHT22;30458;47.448;19.032;2023-02-03T06:50:26;4.70;97.40
44731;DHT22;30458;47.448;19.032;2023-02-03T07:00:27;4.70;97.80
44731;DHT22;30458;47.448;19.032;2023-02-03T07:10:30;4.60;97.20
44731;DHT22;30458;47.448;19.032;2023-02-03T07:20:31;4.40;96.70
44731;DHT22;30458;47.448;19.032;2023-02-03T07:30:32;4.20;96.50
44731;DHT22;30458;47.448;19.032;2023-02-03T07:40:36;4.10;96.20
44731;DHT22;30458;47.448;19.032;2023-02-03T07:50:37;3.90;97.60
44731;DHT22;30458;47.448;19.032;2023-02-03T08:00:38;3.90;97.90
44731;DHT22;30458;47.448;19.032;2023-02-03T08:10:38;4.10;97.40
44731;DHT22;30458;47.448;19.032;2023-02-03T08:20:42;3.80;98.50
44731;DHT22;30458;47.448;19.032;2023-02-03T08:30:42;3.80;99.70
44731;DHT22;30458;47.448;19.032;2023-02-03T08:40:43;4.10;99.90
44731;DHT22;30458;47.448;19.032;2023-02-03T08:50:44;4.40;99.90
44731;DHT22;30458;47.448;19.032;2023-02-03T09:00:52;4.70;99.90
44731;DHT22;30458;47.448;19.032;2023-02-03T09:10:55;4.90;99.90
44731;DHT22;30458;47.448;19.032;2023-02-03T09:21:03;5.10;99.90
44731;DHT22;30458;47.448;19.032;2023-02-03T09:31:10;5.00;99.90
44731;DHT22;30458;47.448;19.032;2023-02-03T09:51:49;4.80;99.90
44731;DHT22;30458;47.448;19.032;2023-02-03T10:02:02;4.90;99.90
44731;DHT22;30458;47.448;19.032;2023-02-03T10:12:20;5.20;99.90
44731;DHT22;30458;47.448;19.032;2023-02-03T10:22:25;5.30;99.90
44731;DHT22;30458;47.448;19.032;2023-02-03T10:32:30;5.30;99.90
44731;DHT22;30458;47.448;19.032;2023-02-03T10:42:33;5.20;99.90
44731;DHT22;30458;47.448;19.032;2023-02-03T11:03:27;4.90;99.90
44731;DHT22;30458;47.448;19.032;2023-02-03T11:13:30;4.80;99.90
44731;DHT22;30458;47.448;19.032;2023-02-03T11:23:32;4.70;99.90
44731;DHT22;30458;47.448;19.032;2023-02-03T11:33:33;4.60;99.90
44731;DHT22;30458;47.448;19.032;2023-02-03T11:43:33;4.40;99.90
44731;DHT22;30458;47.448;19.032;2023-02-03T11:53:58;4.40;99.90
44731;DHT22;30458;47.448;19.032;2023-02-03T13:15:59;4.50;99.90
44731;DHT22;30458;47.448;19.032;2023-02-03T13:46:52;4.70;99.90
44731;DHT22;30458;47.448;19.032;2023-02-03T13:57:04;4.70;99.90
44731;DHT22;30458;47.448;19.032;2023-02-03T14:27:42;4.70;99.90
44731;DHT22;30458;47.448;19.032;2023-02-03T14:37:51;4.90;99.90
44731;DHT22;30458;47.448;19.032;2023-02-03T14:58:35;5.00;99.90
44731;DHT22;30458;47.448;19.032;2023-02-03T15:08:47;5.10;99.90
44731;DHT22;30458;47.448;19.032;2023-02-03T15:18:58;5.20;99.90
44731;DHT22;30458;47.448;19.032;2023-02-03T15:29:27;5.30;99.90
44731;DHT22;30458;47.448;19.032;2023-02-03T15:49:43;5.40;99.90
44731;DHT22;30458;47.448;19.032;2023-02-03T15:59:54;5.40;99.90
44731;DHT22;30458;47.448;19.032;2023-02-03T16:09:58;5.40;99.90
44731;DHT22;30458;47.448;19.032;2023-02-03T16:20:26;5.50;99.90
44731;DHT22;30458;47.448;19.032;2023-02-03T16:30:31;5.60;99.90
44731;DHT22;30458;47.448;19.032;2023-02-03T16:40:51;5.70;99.90
44731;DHT22;30458;47.448;19.032;2023-02-03T16:51:15;5.80;99.90
44731;DHT22;30458;47.448;19.032;2023-02-03T17:01:16;5.60;99.90
44731;DHT22;30458;47.448;19.032;2023-02-03T17:11:20;5.50;99.90
44731;DHT22;30458;47.448;19.032;2023-02-03T17:21:24;5.60;99.90
44731;DHT22;30458;47.448;19.032;2023-02-03T17:31:24;5.60;99.90
44731;DHT22;30458;47.448;19.032;2023-02-03T17:41:25;5.50;99.90
44731;DHT22;30458;47.448;19.032;2023-02-03T17:51:29;5.50;99.90
44731;DHT22;30458;47.448;19.032;2023-02-03T18:01:33;5.60;99.90
44731;DHT22;30458;47.448;19.032;2023-02-03T18:11:37;5.80;99.90
44731;DHT22;30458;47.448;19.032;2023-02-03T18:21:38;5.90;99.90
44731;DHT22;30458;47.448;19.032;2023-02-03T18:31:39;6.00;99.90
44731;DHT22;30458;47.448;19.032;2023-02-03T18:41:46;6.00;99.90
44731;DHT22;30458;47.448;19.032;2023-02-03T18:51:48;5.90;99.90
44731;DHT22;30458;47.448;19.032;2023-02-03T19:01:49;5.80;99.90
44731;DHT22;30458;47.448;19.032;2023-02-03T19:11:50;5.70;99.90
44731;DHT22;30458;47.448;19.032;2023-02-03T19:21:51;5.70;99.90
44731;DHT22;30458;47.448;19.032;2023-02-03T19:31:54;5.80;99.90
44731;DHT22;30458;47.448;19.032;2023-02-03T19:41:57;5.90;99.90
44731;DHT22;30458;47.448;19.032;2023-02-03T19:51:58;5.90;99.90
44731;DHT22;30458;47.448;19.032;2023-02-03T20:02:03;5.90;99.90
44731;DHT22;30458;47.448;19.032;2023-02-03T20:12:06;5.90;99.90
44731;DHT22;30458;47.448;19.032;2023-02-03T20:22:07;5.60;99.90
44731;DHT22;30458;47.448;19.032;2023-02-03T20:32:10;5.50;99.90
44731;DHT22;30458;47.448;19.032;2023-02-03T20:42:15;5.50;99.90
44731;DHT22;30458;47.448;19.032;2023-02-03T20:52:19;5.50;99.90
44731;DHT22;30458;47.448;19.032;2023-02-03T21:02:22;5.60;99.90
44731;DHT22;30458;47.448;19.032;2023-02-03T21:12:35;5.60;99.90
44731;DHT22;30458;47.448;19.032;2023-02-03T21:22:38;5.60;99.90
44731;DHT22;30458;47.448;19.032;2023-02-03T21:32:42;5.70;99.90
44731;DHT22;30458;47.448;19.032;2023-02-03T21:42:44;5.70;99.90
44731;DHT22;30458;47.448;19.032;2023-02-03T21:52:46;5.70;99.90
44731;DHT22;30458;47.448;19.032;2023-02-03T22:02:58;5.80;99.90
44731;DHT22;30458;47.448;19.032;2023-02-03T22:13:00;5.80;99.90
44731;DHT22;30458;47.448;19.032;2023-02-03T22:23:01;5.80;99.90
44731;DHT22;30458;47.448;19.032;2023-02-03T22:33:02;5.80;99.90
44731;DHT22;30458;47.448;19.032;2023-02-03T22:43:05;5.80;99.90
44731;DHT22;30458;47.448;19.032;2023-02-03T22:53:06;5.90;99.90
44731;DHT22;30458;47.448;19.032;2023-02-03T23:03:08;6.00;99.90
44731;DHT22;30458;47.448;19.032;2023-02-03T23:13:11;6.00;99.90
44731;DHT22;30458;47.448;19.032;2023-02-03T23:23:17;6.10;99.90
44731;DHT22;30458;47.448;19.032;2023-02-03T23:33:20;6.20;99.90
44731;DHT22;30458;47.448;19.032;2023-02-03T23:43:26;6.20;99.90
44731;DHT22;30458;47.448;19.032;2023-02-03T23:53:26;6.30;99.90
